createdAt,value
2019-02-05T00:00:54.119Z,1014.86
2019-02-05T00:02:53.374Z,1014.88
2019-02-05T00:03:53.242Z,1014.87
2019-02-05T00:04:53.224Z,1014.88
2019-02-05T00:05:53.454Z,1014.85
2019-02-05T00:06:53.168Z,1014.92
2019-02-05T00:07:53.148Z,1014.84
2019-02-05T00:08:53.213Z,1014.83
2019-02-05T00:09:53.088Z,1014.80
2019-02-05T00:11:53.344Z,1014.82
2019-02-05T00:12:53.026Z,1014.87
2019-02-05T00:13:52.996Z,1014.82
2019-02-05T00:14:53.014Z,1014.77
2019-02-05T00:16:52.950Z,1014.78
2019-02-05T00:18:53.908Z,1014.79
2019-02-05T00:19:52.854Z,1014.89
2019-02-05T00:20:53.711Z,1014.86
2019-02-05T00:21:52.792Z,1014.82
2019-02-05T00:22:52.755Z,1014.82
2019-02-05T00:23:52.741Z,1014.84
2019-02-05T00:24:52.707Z,1014.83
2019-02-05T00:25:53.185Z,1014.88
2019-02-05T00:26:53.041Z,1014.88
2019-02-05T00:27:52.820Z,1015.01
2019-02-05T00:28:52.648Z,1014.84
2019-02-05T00:29:53.028Z,1014.87
2019-02-05T00:30:52.555Z,1014.90
2019-02-05T00:31:52.529Z,1014.94
2019-02-05T00:32:52.796Z,1014.90
2019-02-05T00:33:52.476Z,1014.95
2019-02-05T00:34:52.468Z,1014.85
2019-02-05T00:35:52.425Z,1014.99
2019-02-05T00:36:52.409Z,1014.95
2019-02-05T00:37:52.377Z,1014.95
2019-02-05T00:38:52.413Z,1014.97
2019-02-05T00:39:52.577Z,1015.04
2019-02-05T00:40:52.294Z,1014.96
2019-02-05T00:41:52.341Z,1015.00
2019-02-05T00:42:52.250Z,1014.95
2019-02-05T00:43:52.233Z,1014.95
2019-02-05T00:44:52.547Z,1014.98
2019-02-05T00:45:52.474Z,1014.87
2019-02-05T00:46:52.141Z,1014.84
2019-02-05T00:47:52.189Z,1014.78
2019-02-05T00:48:52.098Z,1014.85
2019-02-05T00:49:52.091Z,1014.93
2019-02-05T00:50:52.093Z,1014.86
2019-02-05T00:51:52.318Z,1014.85
2019-02-05T00:52:51.990Z,1014.89
2019-02-05T00:53:51.972Z,1015.00
2019-02-05T00:54:51.944Z,1014.80
2019-02-05T00:55:51.917Z,1014.83
2019-02-05T00:56:52.195Z,1014.73
2019-02-05T00:57:52.116Z,1014.84
2019-02-05T00:58:52.547Z,1014.87
2019-02-05T00:59:51.817Z,1014.82
2019-02-05T01:00:51.826Z,1014.89
2019-02-05T01:01:51.764Z,1014.82
2019-02-05T01:02:51.785Z,1014.88
2019-02-05T01:03:52.023Z,1014.95
2019-02-05T01:04:51.688Z,1014.94
2019-02-05T01:05:51.659Z,1014.96
2019-02-05T01:06:51.630Z,1014.94
2019-02-05T01:09:51.855Z,1014.97
2019-02-05T01:10:51.546Z,1014.99
2019-02-05T01:11:51.503Z,1014.99
2019-02-05T01:12:51.476Z,1015.13
2019-02-05T01:13:51.512Z,1015.08
2019-02-05T01:14:51.441Z,1015.10
2019-02-05T01:17:51.756Z,1015.16
2019-02-05T01:19:51.303Z,1015.20
2019-02-05T01:20:51.332Z,1015.23
2019-02-05T01:21:51.257Z,1015.26
2019-02-05T01:22:51.228Z,1015.31
2019-02-05T01:23:51.247Z,1015.40
2019-02-05T01:24:51.469Z,1015.34
2019-02-05T01:25:51.143Z,1015.36
2019-02-05T01:26:51.116Z,1015.39
2019-02-05T01:27:51.100Z,1015.43
2019-02-05T01:28:51.073Z,1015.37
2019-02-05T01:29:51.090Z,1015.39
2019-02-05T01:30:51.051Z,1015.32
2019-02-05T01:31:51.240Z,1015.39
2019-02-05T01:32:50.960Z,1015.43
2019-02-05T01:33:50.956Z,1015.30
2019-02-05T01:34:50.924Z,1015.37
2019-02-05T01:35:50.936Z,1015.43
2019-02-05T01:36:50.862Z,1015.35
2019-02-05T01:37:50.836Z,1015.39
2019-02-05T01:38:51.055Z,1015.38
2019-02-05T01:39:50.784Z,1015.37
2019-02-05T01:41:50.778Z,1015.44
2019-02-05T01:42:50.706Z,1015.41
2019-02-05T01:43:50.674Z,1015.39
2019-02-05T01:44:50.749Z,1015.42
2019-02-05T01:45:51.028Z,1015.56
2019-02-05T01:46:50.600Z,1015.51
2019-02-05T01:48:50.609Z,1015.57
2019-02-05T01:49:50.519Z,1015.56
2019-02-05T01:50:50.590Z,1015.59
2019-02-05T01:51:50.467Z,1015.55
2019-02-05T01:52:50.749Z,1015.56
2019-02-05T01:53:50.418Z,1015.54
2019-02-05T01:54:50.436Z,1015.53
2019-02-05T01:55:50.380Z,1015.49
2019-02-05T01:56:50.431Z,1015.52
2019-02-05T01:57:50.313Z,1015.54
2019-02-05T01:58:50.278Z,1015.56
2019-02-05T01:59:50.511Z,1015.53
2019-02-05T02:00:50.321Z,1015.50
2019-02-05T02:01:50.199Z,1015.54
2019-02-05T02:03:50.157Z,1015.52
2019-02-05T02:04:50.678Z,1015.49
2019-02-05T02:05:50.105Z,1015.51
2019-02-05T02:06:50.403Z,1015.45
2019-02-05T02:07:50.039Z,1015.42
2019-02-05T02:08:50.015Z,1015.45
2019-02-05T02:09:49.985Z,1015.45
2019-02-05T02:10:49.963Z,1015.45
2019-02-05T02:11:49.955Z,1015.41
2019-02-05T02:13:50.277Z,1015.46
2019-02-05T02:14:49.865Z,1015.41
2019-02-05T02:15:49.828Z,1015.39
2019-02-05T02:17:49.773Z,1015.31
2019-02-05T02:18:49.774Z,1015.48
2019-02-05T02:22:50.650Z,1015.27
2019-02-05T02:23:49.619Z,1015.28
2019-02-05T02:24:49.638Z,1015.27
2019-02-05T02:25:49.586Z,1015.24
2019-02-05T02:26:52.107Z,1015.23
2019-02-05T02:27:49.505Z,1015.20
2019-02-05T02:28:49.778Z,1015.23
2019-02-05T02:29:49.455Z,1015.26
2019-02-05T02:30:49.442Z,1015.17
2019-02-05T02:31:49.393Z,1015.24
2019-02-05T02:32:49.386Z,1015.26
2019-02-05T02:33:49.348Z,1015.23
2019-02-05T02:34:49.717Z,1015.23
2019-02-05T02:35:49.329Z,1015.25
2019-02-05T02:36:49.260Z,1015.30
2019-02-05T02:37:49.241Z,1015.28
2019-02-05T02:38:49.212Z,1015.26
2019-02-05T02:39:49.182Z,1015.26
2019-02-05T02:40:49.475Z,1015.28
2019-02-05T02:41:49.126Z,1015.24
2019-02-05T02:43:49.079Z,1015.14
2019-02-05T02:44:49.046Z,1015.17
2019-02-05T02:45:49.027Z,1015.19
2019-02-05T02:46:49.051Z,1015.12
2019-02-05T02:47:49.319Z,1015.16
2019-02-05T02:48:48.961Z,1015.13
2019-02-05T02:49:48.908Z,1015.12
2019-02-05T02:50:48.888Z,1015.07
2019-02-05T02:51:48.853Z,1015.05
2019-02-05T02:52:48.884Z,1015.09
2019-02-05T02:53:48.803Z,1015.08
2019-02-05T02:54:49.078Z,1015.06
2019-02-05T02:55:48.763Z,1015.10
2019-02-05T02:56:48.733Z,1015.10
2019-02-05T02:57:48.717Z,1015.09
2019-02-05T02:58:48.673Z,1015.09
2019-02-05T02:59:48.643Z,1015.07
2019-02-05T03:00:48.610Z,1015.13
2019-02-05T03:01:49.183Z,1015.11
2019-02-05T03:02:48.586Z,1015.11
2019-02-05T03:03:48.547Z,1015.05
2019-02-05T03:04:48.599Z,1015.09
2019-02-05T03:05:48.493Z,1015.10
2019-02-05T03:06:48.524Z,1015.13
2019-02-05T03:07:48.439Z,1015.18
2019-02-05T03:08:48.699Z,1015.25
2019-02-05T03:09:48.400Z,1015.34
2019-02-05T03:10:48.393Z,1015.27
2019-02-05T03:11:48.352Z,1015.29
2019-02-05T03:12:48.300Z,1015.20
2019-02-05T03:13:48.266Z,1015.26
2019-02-05T03:14:48.238Z,1015.30
2019-02-05T03:15:48.524Z,1015.29
2019-02-05T03:16:48.232Z,1015.32
2019-02-05T03:18:48.131Z,1015.30
2019-02-05T03:21:48.296Z,1015.33
2019-02-05T03:22:51.103Z,1015.35
2019-02-05T03:23:47.998Z,1015.30
2019-02-05T03:24:47.967Z,1015.35
2019-02-05T03:25:47.940Z,1015.34
2019-02-05T03:27:48.188Z,1015.34
2019-02-05T03:28:47.977Z,1015.35
2019-02-05T03:29:47.853Z,1015.32
2019-02-05T03:30:47.814Z,1015.33
2019-02-05T03:31:47.787Z,1015.29
2019-02-05T03:32:47.804Z,1015.32
2019-02-05T03:33:48.103Z,1015.36
2019-02-05T03:34:47.788Z,1015.35
2019-02-05T03:35:47.671Z,1015.37
2019-02-05T03:36:47.705Z,1015.38
2019-02-05T03:37:47.626Z,1015.45
2019-02-05T03:38:47.595Z,1015.35
2019-02-05T03:39:47.817Z,1015.34
2019-02-05T03:40:47.738Z,1015.37
2019-02-05T03:41:47.568Z,1015.38
2019-02-05T03:42:47.490Z,1015.42
2019-02-05T03:43:47.565Z,1015.40
2019-02-05T03:44:47.433Z,1015.40
2019-02-05T03:45:47.662Z,1015.41
2019-02-05T03:46:47.438Z,1015.47
2019-02-05T03:47:47.351Z,1015.38
2019-02-05T03:48:47.327Z,1015.45
2019-02-05T03:49:47.345Z,1015.44
2019-02-05T03:50:47.281Z,1015.45
2019-02-05T03:51:47.493Z,1015.41
2019-02-05T03:52:47.325Z,1015.41
2019-02-05T03:53:48.203Z,1015.39
2019-02-05T03:54:47.171Z,1015.40
2019-02-05T03:55:47.151Z,1015.40
2019-02-05T03:56:47.113Z,1015.34
2019-02-05T03:57:47.389Z,1015.38
2019-02-05T03:58:47.115Z,1015.41
2019-02-05T03:59:47.048Z,1015.38
2019-02-05T04:00:47.013Z,1015.37
2019-02-05T04:02:46.980Z,1015.41
2019-02-05T04:03:46.945Z,1015.37
2019-02-05T04:04:47.199Z,1015.39
2019-02-05T04:05:46.877Z,1015.38
2019-02-05T04:06:46.843Z,1015.36
2019-02-05T04:07:46.834Z,1015.40
2019-02-05T04:08:46.803Z,1015.41
2019-02-05T04:09:46.762Z,1015.44
2019-02-05T04:10:46.830Z,1015.48
2019-02-05T04:11:47.015Z,1015.45
2019-02-05T04:12:46.747Z,1015.44
2019-02-05T04:13:46.674Z,1015.52
2019-02-05T04:14:49.259Z,1015.46
2019-02-05T04:15:46.604Z,1015.58
2019-02-05T04:16:46.663Z,1015.48
2019-02-05T04:18:46.779Z,1015.48
2019-02-05T04:19:46.524Z,1015.54
2019-02-05T04:20:46.486Z,1015.48
2019-02-05T04:22:46.475Z,1015.45
2019-02-05T04:24:46.665Z,1015.46
2019-02-05T04:25:46.340Z,1015.44
2019-02-05T04:26:46.316Z,1015.50
2019-02-05T04:27:47.487Z,1015.46
2019-02-05T04:28:46.360Z,1015.43
2019-02-05T04:29:46.238Z,1015.46
2019-02-05T04:30:46.211Z,1015.41
2019-02-05T04:31:46.501Z,1015.45
2019-02-05T04:32:46.159Z,1015.46
2019-02-05T04:33:46.129Z,1015.51
2019-02-05T04:34:46.154Z,1015.51
2019-02-05T04:35:46.079Z,1015.56
2019-02-05T04:36:46.478Z,1015.50
2019-02-05T04:37:46.061Z,1015.46
2019-02-05T04:38:46.248Z,1015.44
2019-02-05T04:39:45.983Z,1015.46
2019-02-05T04:40:46.072Z,1015.49
2019-02-05T04:41:46.366Z,1015.45
2019-02-05T04:42:45.961Z,1015.44
2019-02-05T04:43:46.006Z,1015.47
2019-02-05T04:44:45.908Z,1015.40
2019-02-05T04:45:46.134Z,1015.43
2019-02-05T04:46:45.839Z,1015.41
2019-02-05T04:48:45.747Z,1015.45
2019-02-05T04:49:45.722Z,1015.47
2019-02-05T04:50:45.695Z,1015.41
2019-02-05T04:51:45.985Z,1015.43
2019-02-05T04:52:45.677Z,1015.42
2019-02-05T04:53:45.605Z,1015.42
2019-02-05T04:54:45.591Z,1015.48
2019-02-05T04:55:45.572Z,1015.49
2019-02-05T04:56:45.544Z,1015.46
2019-02-05T04:57:56.993Z,1015.48
2019-02-05T04:58:45.532Z,1015.49
2019-02-05T04:59:45.452Z,1015.48
2019-02-05T05:00:45.475Z,1015.54
2019-02-05T05:01:45.399Z,1015.61
2019-02-05T05:02:45.368Z,1015.57
2019-02-05T05:03:45.639Z,1015.66
2019-02-05T05:04:45.314Z,1015.57
2019-02-05T05:05:45.296Z,1015.54
2019-02-05T05:06:45.267Z,1015.56
2019-02-05T05:07:45.232Z,1015.53
2019-02-05T05:08:45.207Z,1015.53
2019-02-05T05:09:45.482Z,1015.59
2019-02-05T05:10:45.154Z,1015.58
2019-02-05T05:11:45.133Z,1015.57
2019-02-05T05:12:45.093Z,1015.53
2019-02-05T05:13:45.268Z,1015.59
2019-02-05T05:14:45.048Z,1015.44
2019-02-05T05:15:45.377Z,1015.46
2019-02-05T05:16:44.993Z,1015.46
2019-02-05T05:17:44.975Z,1015.42
2019-02-05T05:18:44.992Z,1015.44
2019-02-05T05:19:44.911Z,1015.48
2019-02-05T05:20:44.893Z,1015.53
2019-02-05T05:21:45.159Z,1015.51
2019-02-05T05:22:44.850Z,1015.57
2019-02-05T05:23:45.177Z,1015.54
2019-02-05T05:25:45.161Z,1015.51
2019-02-05T05:26:45.765Z,1015.47
2019-02-05T05:27:45.585Z,1015.51
2019-02-05T05:28:45.602Z,1015.47
2019-02-05T05:29:44.897Z,1015.49
2019-02-05T05:30:44.627Z,1015.59
2019-02-05T05:31:44.598Z,1015.61
2019-02-05T05:32:44.625Z,1015.58
2019-02-05T05:33:44.661Z,1015.60
2019-02-05T05:34:44.824Z,1015.58
2019-02-05T05:35:44.701Z,1015.54
2019-02-05T05:36:44.468Z,1015.52
2019-02-05T05:37:44.451Z,1015.64
2019-02-05T05:38:44.414Z,1015.64
2019-02-05T05:39:44.439Z,1015.62
2019-02-05T05:40:44.376Z,1015.73
2019-02-05T05:41:44.642Z,1015.75
2019-02-05T05:42:44.305Z,1015.73
2019-02-05T05:43:44.281Z,1015.71
2019-02-05T05:44:44.258Z,1015.74
2019-02-05T05:45:44.282Z,1015.77
2019-02-05T05:46:44.199Z,1015.72
2019-02-05T05:47:44.380Z,1015.75
2019-02-05T05:48:44.448Z,1015.62
2019-02-05T05:49:44.134Z,1015.67
2019-02-05T05:50:44.115Z,1015.66
2019-02-05T05:51:44.124Z,1015.70
2019-02-05T05:53:44.616Z,1015.78
2019-02-05T05:54:45.303Z,1015.79
2019-02-05T05:56:43.941Z,1015.74
2019-02-05T05:57:44.069Z,1015.74
2019-02-05T05:58:43.901Z,1015.76
2019-02-05T05:59:43.860Z,1015.73
2019-02-05T06:00:44.159Z,1015.73
2019-02-05T06:01:43.911Z,1015.78
2019-02-05T06:02:43.783Z,1015.71
2019-02-05T06:03:43.903Z,1015.76
2019-02-05T06:04:43.731Z,1015.84
2019-02-05T06:06:43.678Z,1015.84
2019-02-05T06:07:43.907Z,1015.77
2019-02-05T06:08:43.627Z,1015.80
2019-02-05T06:09:43.657Z,1015.84
2019-02-05T06:10:43.591Z,1015.86
2019-02-05T06:11:43.561Z,1015.90
2019-02-05T06:12:43.519Z,1015.92
2019-02-05T06:13:43.855Z,1015.94
2019-02-05T06:14:43.465Z,1015.99
2019-02-05T06:15:43.492Z,1015.98
2019-02-05T06:16:43.413Z,1015.97
2019-02-05T06:17:43.417Z,1016.01
2019-02-05T06:19:43.637Z,1015.97
2019-02-05T06:20:43.312Z,1015.99
2019-02-05T06:21:43.339Z,1015.96
2019-02-05T06:22:43.258Z,1015.94
2019-02-05T06:23:43.228Z,1016.02
2019-02-05T06:25:43.484Z,1016.06
2019-02-05T06:27:43.227Z,1016.07
2019-02-05T06:28:43.191Z,1016.07
2019-02-05T06:29:43.073Z,1016.09
2019-02-05T06:30:43.150Z,1016.13
2019-02-05T06:31:43.330Z,1016.10
2019-02-05T06:32:43.085Z,1016.04
2019-02-05T06:33:43.530Z,1016.12
2019-02-05T06:34:43.245Z,1016.09
2019-02-05T06:35:43.404Z,1016.14
2019-02-05T06:36:43.314Z,1016.13
2019-02-05T06:37:43.115Z,1016.21
2019-02-05T06:38:44.715Z,1016.26
2019-02-05T06:39:42.810Z,1016.24
2019-02-05T06:40:42.793Z,1016.24
2019-02-05T06:41:42.767Z,1016.24
2019-02-05T06:42:42.786Z,1016.25
2019-02-05T06:43:42.808Z,1016.33
2019-02-05T06:44:42.985Z,1016.33
2019-02-05T06:45:42.672Z,1016.39
2019-02-05T06:46:42.624Z,1016.44
2019-02-05T06:47:42.601Z,1016.44
2019-02-05T06:48:42.677Z,1016.55
2019-02-05T06:49:42.743Z,1016.45
2019-02-05T06:50:42.816Z,1016.48
2019-02-05T06:51:42.493Z,1016.46
2019-02-05T06:52:42.463Z,1016.48
2019-02-05T06:53:42.745Z,1016.44
2019-02-05T06:54:42.428Z,1016.51
2019-02-05T06:55:42.403Z,1016.57
2019-02-05T06:56:43.143Z,1016.54
2019-02-05T06:57:43.345Z,1016.56
2019-02-05T06:58:46.513Z,1016.55
2019-02-05T06:59:42.281Z,1016.55
2019-02-05T07:00:42.274Z,1016.53
2019-02-05T07:01:42.366Z,1016.57
2019-02-05T07:02:42.272Z,1016.60
2019-02-05T07:03:42.446Z,1016.59
2019-02-05T07:04:42.150Z,1016.68
2019-02-05T07:05:42.158Z,1016.65
2019-02-05T07:07:42.117Z,1016.66
2019-02-05T07:08:42.645Z,1016.67
2019-02-05T07:09:42.320Z,1016.66
2019-02-05T07:10:42.023Z,1016.65
2019-02-05T07:11:41.993Z,1016.67
2019-02-05T07:12:41.944Z,1016.73
2019-02-05T07:13:41.998Z,1016.69
2019-02-05T07:14:41.891Z,1016.79
2019-02-05T07:15:42.106Z,1016.75
2019-02-05T07:16:41.848Z,1016.72
2019-02-05T07:17:49.282Z,1016.77
2019-02-05T07:18:41.784Z,1016.74
2019-02-05T07:19:41.751Z,1016.81
2019-02-05T07:20:41.778Z,1016.78
2019-02-05T07:21:42.013Z,1016.79
2019-02-05T07:22:41.677Z,1016.85
2019-02-05T07:23:41.658Z,1016.83
2019-02-05T07:25:41.610Z,1016.85
2019-02-05T07:26:41.824Z,1016.87
2019-02-05T07:27:42.019Z,1016.88
2019-02-05T07:28:41.606Z,1016.93
2019-02-05T07:29:41.570Z,1016.91
2019-02-05T07:30:42.672Z,1016.93
2019-02-05T07:31:41.730Z,1016.97
2019-02-05T07:32:41.626Z,1016.97
2019-02-05T07:33:42.147Z,1016.94
2019-02-05T07:34:41.376Z,1016.97
2019-02-05T07:35:45.821Z,1016.92
2019-02-05T07:36:41.318Z,1017.02
2019-02-05T07:37:41.515Z,1017.02
2019-02-05T07:38:41.332Z,1017.01
2019-02-05T07:39:41.552Z,1017.03
2019-02-05T07:40:41.214Z,1016.98
2019-02-05T07:41:41.210Z,1017.06
2019-02-05T07:42:43.837Z,1016.97
2019-02-05T07:43:41.134Z,1016.98
2019-02-05T07:44:41.184Z,1017.01
2019-02-05T07:45:41.377Z,1017.00
2019-02-05T07:46:41.061Z,1017.08
2019-02-05T07:47:41.779Z,1017.00
2019-02-05T07:48:41.017Z,1017.09
2019-02-05T07:49:41.008Z,1017.07
2019-02-05T07:50:41.010Z,1017.06
2019-02-05T07:51:41.274Z,1017.10
2019-02-05T07:52:40.906Z,1017.09
2019-02-05T07:53:40.875Z,1017.09
2019-02-05T07:54:40.862Z,1017.07
2019-02-05T07:55:40.833Z,1017.11
2019-02-05T07:57:41.154Z,1017.14
2019-02-05T07:58:40.808Z,1017.07
2019-02-05T07:59:40.738Z,1017.10
2019-02-05T08:00:40.739Z,1017.08
2019-02-05T08:01:40.679Z,1017.08
2019-02-05T08:02:40.656Z,1017.13
2019-02-05T08:03:40.912Z,1017.14
2019-02-05T08:04:40.596Z,1017.23
2019-02-05T08:05:40.938Z,1017.21
2019-02-05T08:06:40.602Z,1017.25
2019-02-05T08:07:41.393Z,1017.24
2019-02-05T08:08:40.554Z,1017.23
2019-02-05T08:09:40.769Z,1017.30
2019-02-05T08:11:41.361Z,1017.29
2019-02-05T08:12:40.436Z,1017.34
2019-02-05T08:13:40.368Z,1017.29
2019-02-05T08:14:40.344Z,1017.30
2019-02-05T08:15:42.214Z,1017.38
2019-02-05T08:16:40.553Z,1017.32
2019-02-05T08:17:40.305Z,1017.40
2019-02-05T08:18:40.311Z,1017.35
2019-02-05T08:19:40.204Z,1017.40
2019-02-05T08:20:40.222Z,1017.41
2019-02-05T08:21:40.473Z,1017.40
2019-02-05T08:22:40.386Z,1017.33
2019-02-05T08:23:40.351Z,1017.39
2019-02-05T08:25:40.267Z,1017.42
2019-02-05T08:26:40.146Z,1017.38
2019-02-05T08:27:40.277Z,1017.40
2019-02-05T08:28:42.290Z,1017.41
2019-02-05T08:29:40.016Z,1017.42
2019-02-05T08:30:40.942Z,1017.43
2019-02-05T08:31:40.697Z,1017.42
2019-02-05T08:34:40.394Z,1017.42
2019-02-05T08:35:39.809Z,1017.48
2019-02-05T08:36:39.909Z,1017.43
2019-02-05T08:37:39.833Z,1017.47
2019-02-05T08:39:39.843Z,1017.53
2019-02-05T08:40:39.984Z,1017.52
2019-02-05T08:41:39.634Z,1017.52
2019-02-05T08:42:39.612Z,1017.50
2019-02-05T08:43:39.586Z,1017.50
2019-02-05T08:44:39.558Z,1017.56
2019-02-05T08:45:39.914Z,1017.56
2019-02-05T08:46:39.825Z,1017.55
2019-02-05T08:47:39.484Z,1017.56
2019-02-05T08:48:39.462Z,1017.52
2019-02-05T08:49:39.734Z,1017.49
2019-02-05T08:50:39.420Z,1017.52
2019-02-05T08:51:39.434Z,1017.53
2019-02-05T08:52:39.378Z,1017.60
2019-02-05T08:53:39.711Z,1017.60
2019-02-05T08:54:39.316Z,1017.61
2019-02-05T08:55:39.362Z,1017.60
2019-02-05T08:56:39.247Z,1017.57
2019-02-05T08:57:39.275Z,1017.57
2019-02-05T08:58:42.526Z,1017.60
2019-02-05T08:59:39.481Z,1017.58
2019-02-05T09:00:39.197Z,1017.61
2019-02-05T09:01:39.124Z,1017.61
2019-02-05T09:02:39.284Z,1017.60
2019-02-05T09:04:39.117Z,1017.55
2019-02-05T09:05:39.432Z,1017.53
2019-02-05T09:06:39.160Z,1017.56
2019-02-05T09:07:38.982Z,1017.56
2019-02-05T09:08:38.963Z,1017.55
2019-02-05T09:09:38.967Z,1017.62
2019-02-05T09:10:38.954Z,1017.67
2019-02-05T09:11:39.129Z,1017.59
2019-02-05T09:12:38.845Z,1017.64
2019-02-05T09:13:38.819Z,1017.64
2019-02-05T09:14:38.831Z,1017.61
2019-02-05T09:15:38.784Z,1017.63
2019-02-05T09:16:38.744Z,1017.65
2019-02-05T09:17:39.458Z,1017.63
2019-02-05T09:18:38.977Z,1017.60
2019-02-05T09:19:38.658Z,1017.63
2019-02-05T09:21:38.665Z,1017.64
2019-02-05T09:23:39.028Z,1017.67
2019-02-05T09:24:39.141Z,1017.69
2019-02-05T09:25:38.571Z,1017.63
2019-02-05T09:26:38.501Z,1017.69
2019-02-05T09:27:38.522Z,1017.61
2019-02-05T09:28:38.441Z,1017.64
2019-02-05T09:29:38.714Z,1017.63
2019-02-05T09:30:38.381Z,1017.66
2019-02-05T09:31:38.431Z,1017.64
2019-02-05T09:32:38.356Z,1017.65
2019-02-05T09:33:38.360Z,1017.65
2019-02-05T09:34:40.849Z,1017.73
2019-02-05T09:35:38.586Z,1017.67
2019-02-05T09:36:38.257Z,1017.65
2019-02-05T09:37:38.242Z,1017.70
2019-02-05T09:38:38.208Z,1017.67
2019-02-05T09:39:38.261Z,1017.64
2019-02-05T09:40:38.124Z,1017.68
2019-02-05T09:41:38.402Z,1017.70
2019-02-05T09:42:38.092Z,1017.69
2019-02-05T09:43:38.044Z,1017.70
2019-02-05T09:44:38.636Z,1017.67
2019-02-05T09:45:38.077Z,1017.73
2019-02-05T09:46:40.804Z,1017.69
2019-02-05T09:47:38.206Z,1017.69
2019-02-05T09:48:37.928Z,1017.69
2019-02-05T09:49:38.309Z,1017.74
2019-02-05T09:50:44.617Z,1017.77
2019-02-05T09:53:38.148Z,1017.77
2019-02-05T09:54:37.791Z,1017.82
2019-02-05T09:55:38.066Z,1017.80
2019-02-05T09:56:37.723Z,1017.74
2019-02-05T09:57:37.706Z,1017.74
2019-02-05T09:58:37.756Z,1017.75
2019-02-05T09:59:45.102Z,1017.76
2019-02-05T10:00:37.647Z,1017.84
2019-02-05T10:01:37.590Z,1017.88
2019-02-05T10:02:37.873Z,1017.90
2019-02-05T10:03:37.993Z,1017.86
2019-02-05T10:04:37.595Z,1017.85
2019-02-05T10:05:37.758Z,1017.90
2019-02-05T10:06:37.775Z,1017.85
2019-02-05T10:07:38.560Z,1017.86
2019-02-05T10:08:37.436Z,1017.82
2019-02-05T10:09:37.717Z,1017.83
2019-02-05T10:10:37.666Z,1017.89
2019-02-05T10:11:37.652Z,1017.91
2019-02-05T10:13:37.351Z,1017.90
2019-02-05T10:14:37.315Z,1017.91
2019-02-05T10:16:38.417Z,1017.92
2019-02-05T10:17:39.570Z,1017.89
2019-02-05T10:18:37.222Z,1017.88
2019-02-05T10:19:37.278Z,1017.86
2019-02-05T10:20:37.136Z,1017.93
2019-02-05T10:22:37.596Z,1017.93
2019-02-05T10:23:37.321Z,1017.96
2019-02-05T10:24:37.034Z,1017.95
2019-02-05T10:25:37.012Z,1018.09
2019-02-05T10:26:37.055Z,1017.94
2019-02-05T10:30:37.314Z,1018.03
2019-02-05T10:31:36.842Z,1018.02
2019-02-05T10:32:37.538Z,1018.08
2019-02-05T10:33:36.804Z,1018.05
2019-02-05T10:34:36.783Z,1018.13
2019-02-05T10:35:37.179Z,1018.10
2019-02-05T10:36:36.721Z,1018.12
2019-02-05T10:37:36.885Z,1018.15
2019-02-05T10:38:36.770Z,1018.11
2019-02-05T10:39:37.152Z,1018.14
2019-02-05T10:40:36.635Z,1018.14
2019-02-05T10:41:37.925Z,1018.10
2019-02-05T10:42:36.636Z,1018.11
2019-02-05T10:44:36.533Z,1018.17
2019-02-05T10:45:36.511Z,1018.11
2019-02-05T10:46:36.610Z,1018.14
2019-02-05T10:47:36.767Z,1018.17
2019-02-05T10:48:36.453Z,1018.20
2019-02-05T10:50:36.708Z,1018.23
2019-02-05T10:51:36.620Z,1018.23
2019-02-05T10:52:36.334Z,1018.20
2019-02-05T10:53:36.606Z,1018.24
2019-02-05T10:54:36.699Z,1018.24
2019-02-05T10:55:36.250Z,1018.25
2019-02-05T10:56:36.240Z,1018.20
2019-02-05T10:57:36.270Z,1018.24
2019-02-05T10:58:36.261Z,1018.22
2019-02-05T10:59:36.499Z,1018.20
2019-02-05T11:00:36.169Z,1018.24
2019-02-05T11:01:36.100Z,1018.25
2019-02-05T11:02:36.080Z,1018.28
2019-02-05T11:03:36.326Z,1018.25
2019-02-05T11:06:36.809Z,1018.27
2019-02-05T11:07:36.156Z,1018.26
2019-02-05T11:08:36.140Z,1018.29
2019-02-05T11:09:35.917Z,1018.23
2019-02-05T11:10:36.883Z,1018.20
2019-02-05T11:11:35.916Z,1018.26
2019-02-05T11:12:36.488Z,1018.19
2019-02-05T11:13:36.068Z,1018.21
2019-02-05T11:14:36.330Z,1018.24
2019-02-05T11:15:35.835Z,1018.22
2019-02-05T11:16:35.727Z,1018.17
2019-02-05T11:17:35.704Z,1018.22
2019-02-05T11:18:36.041Z,1018.22
2019-02-05T11:19:35.761Z,1018.26
2019-02-05T11:20:35.646Z,1018.26
2019-02-05T11:21:35.721Z,1018.21
2019-02-05T11:22:35.614Z,1018.22
2019-02-05T11:23:35.585Z,1018.19
2019-02-05T11:24:35.886Z,1018.22
2019-02-05T11:25:35.517Z,1018.23
2019-02-05T11:26:36.796Z,1018.20
2019-02-05T11:27:35.461Z,1018.17
2019-02-05T11:28:35.426Z,1018.19
2019-02-05T11:29:35.412Z,1018.18
2019-02-05T11:30:35.865Z,1018.20
2019-02-05T11:31:35.461Z,1018.15
2019-02-05T11:32:35.342Z,1018.12
2019-02-05T11:33:35.454Z,1018.15
2019-02-05T11:35:36.289Z,1018.16
2019-02-05T11:36:35.641Z,1018.14
2019-02-05T11:37:35.339Z,1018.12
2019-02-05T11:38:35.173Z,1018.10
2019-02-05T11:39:37.005Z,1018.08
2019-02-05T11:40:35.118Z,1018.08
2019-02-05T11:41:35.111Z,1018.09
2019-02-05T11:42:35.390Z,1018.08
2019-02-05T11:45:35.153Z,1018.14
2019-02-05T11:46:34.976Z,1018.06
2019-02-05T11:47:34.954Z,1018.10
2019-02-05T11:48:35.272Z,1018.11
2019-02-05T11:49:34.896Z,1018.21
2019-02-05T11:50:34.951Z,1018.14
2019-02-05T11:51:34.863Z,1018.06
2019-02-05T11:52:34.852Z,1018.09
2019-02-05T11:53:34.794Z,1018.08
2019-02-05T11:54:35.191Z,1018.11
2019-02-05T11:55:36.637Z,1018.11
2019-02-05T11:56:34.802Z,1018.10
2019-02-05T11:57:35.040Z,1018.15
2019-02-05T11:58:34.765Z,1018.14
2019-02-05T11:59:34.647Z,1018.10
2019-02-05T12:00:35.035Z,1018.14
2019-02-05T12:01:39.017Z,1018.18
2019-02-05T12:03:34.797Z,1018.11
2019-02-05T12:04:34.721Z,1018.11
2019-02-05T12:05:34.510Z,1018.16
2019-02-05T12:06:34.843Z,1018.12
2019-02-05T12:07:34.451Z,1018.11
2019-02-05T12:08:34.615Z,1018.13
2019-02-05T12:09:35.099Z,1018.13
2019-02-05T12:10:34.650Z,1018.14
2019-02-05T12:11:34.356Z,1018.11
2019-02-05T12:12:34.683Z,1018.10
2019-02-05T12:13:34.443Z,1018.11
2019-02-05T12:14:34.330Z,1018.10
2019-02-05T12:15:34.267Z,1018.12
2019-02-05T12:16:34.338Z,1018.16
2019-02-05T12:17:34.214Z,1018.11
2019-02-05T12:18:34.526Z,1018.16
2019-02-05T12:19:34.174Z,1018.17
2019-02-05T12:23:34.206Z,1018.19
2019-02-05T12:24:34.334Z,1018.20
2019-02-05T12:25:34.414Z,1018.18
2019-02-05T12:26:34.090Z,1018.14
2019-02-05T12:27:34.044Z,1018.12
2019-02-05T12:28:33.975Z,1018.13
2019-02-05T12:29:33.916Z,1018.10
2019-02-05T12:30:44.561Z,1018.07
2019-02-05T12:31:33.872Z,1018.03
2019-02-05T12:32:33.824Z,1018.08
2019-02-05T12:33:33.839Z,1018.09
2019-02-05T12:34:33.785Z,1018.09
2019-02-05T12:35:33.954Z,1018.06
2019-02-05T12:36:34.279Z,1018.10
2019-02-05T12:37:33.697Z,1018.09
2019-02-05T12:38:33.672Z,1018.09
2019-02-05T12:39:33.648Z,1018.17
2019-02-05T12:40:33.655Z,1018.09
2019-02-05T12:41:33.660Z,1018.14
2019-02-05T12:42:33.886Z,1018.07
2019-02-05T12:43:33.612Z,1018.05
2019-02-05T12:44:33.538Z,1018.06
2019-02-05T12:45:33.698Z,1017.99
2019-02-05T12:46:33.870Z,1017.91
2019-02-05T12:47:33.959Z,1018.01
2019-02-05T12:48:35.475Z,1017.98
2019-02-05T12:50:34.821Z,1017.98
2019-02-05T12:51:33.738Z,1017.99
2019-02-05T12:52:33.570Z,1018.01
2019-02-05T12:53:33.318Z,1018.07
2019-02-05T12:54:33.661Z,1018.02
2019-02-05T12:55:33.258Z,1017.99
2019-02-05T12:56:33.269Z,1018.03
2019-02-05T12:57:33.206Z,1017.99
2019-02-05T12:58:33.404Z,1018.02
2019-02-05T12:59:33.157Z,1017.99
2019-02-05T13:00:33.449Z,1018.03
2019-02-05T13:01:33.631Z,1017.98
2019-02-05T13:02:33.236Z,1018.01
2019-02-05T13:03:33.743Z,1018.03
2019-02-05T13:04:33.229Z,1018.06
2019-02-05T13:05:33.060Z,1018.15
2019-02-05T13:06:33.469Z,1018.17
2019-02-05T13:07:32.953Z,1018.09
2019-02-05T13:08:32.957Z,1018.19
2019-02-05T13:09:32.914Z,1018.11
2019-02-05T13:10:32.890Z,1018.21